Flight Track Log - Related Links

Times and Time Zones

All times are in EDT time to prevent confusion due to time zone crossing. See the N6105D flight status page for this flight to view local times or setup timezone preferences in your user account.


Time Position Orientation Groundspeed Altitude Reporting Facility
EDT Latitude Longitude Course Direction KTS MPH feet Rate Location/Type
Mon 11:58:43 AM 35.4494 -82.4733 162° South 156 180 8,400  Level Atlanta Center
Mon 11:59:43 AM 35.4033 -82.4514 159° South 167 192 9,700 1,350 Climbing Atlanta Center
Mon 12:00:43 PM 35.3553 -82.4344 164° South 174 200 11,100 1,450 Climbing Atlanta Center
Mon 12:01:00 PM 35.0687 -82.3875 162° South  Level FlightAware Approximate
Mon 12:01:43 PM 35.3069 -82.4150 162° South 185 213 12,600  Level Atlanta Center
Mon 12:02:00 PM 35.0077 -82.3630 162° South  Level FlightAware Approximate
Mon 12:02:43 PM 35.2586 -82.3956 162° South 190 219 13,900  Level Atlanta Center
Mon 12:03:43 PM 35.2022 -82.3764 164° South 190 219 15,000 1,050 Climbing Atlanta Center
Mon 12:04:43 PM 35.1456 -82.3522 161° South 203 234 16,000 1,000 Climbing Atlanta Center
Mon 12:05:43 PM 35.0889 -82.3331 165° South 209 241 17,000 950 Climbing Atlanta Center
Mon 12:06:43 PM 35.0300 -82.3064 160° South 215 247 17,900 850 Climbing Atlanta Center
Mon 12:07:43 PM 34.9669 -82.2797 161° South 229 264 18,700 850 Climbing Atlanta Center
Mon 12:08:43 PM 34.9019 -82.2558 163° South 234 269 19,600 900 Climbing Atlanta Center
Mon 12:09:43 PM 34.8392 -82.2319 163° South 239 275 20,500 950 Climbing Atlanta Center
Mon 12:10:43 PM 34.7739 -82.2056 162° South 244 281 21,500 950 Climbing Atlanta Center
Mon 12:11:43 PM 34.7089 -82.1764 160° South 244 281 22,400 744 Climbing Atlanta Center
Mon 12:12:44 PM 34.6417 -82.1528 164° South 244 281 23,000 300 Climbing Atlanta Center
Mon 12:13:43 PM 34.5703 -82.1267 163° South 256 295 23,000  Level Atlanta Center
Mon 12:14:43 PM 34.4947 -82.0931 160° South 271 312 23,000  Level Atlanta Center
Mon 12:15:43 PM 34.4150 -82.0647 164° South 284 327 23,000  Level Atlanta Center
Mon 12:16:43 PM 34.3392 -82.0336 161° South 289 333 23,000  Level Atlanta Center
Mon 12:18:39 PM 34.1900 -81.9764 162° South 287 330 23,000  Level Jacksonville Center
Mon 12:19:39 PM 34.1144 -81.9444 161° South 287 330 23,000  Level Jacksonville Center
Mon 12:20:39 PM 34.0372 -81.9153 163° South 287 330 23,000  Level Jacksonville Center
Mon 12:21:39 PM 33.9617 -81.8861 162° South 287 330 23,000  Level Jacksonville Center
Mon 12:22:39 PM 33.8822 -81.8569 163° South 287 330 23,000  Level Jacksonville Center
Mon 12:23:39 PM 33.8047 -81.8253 161° South 287 330 23,000  Level Jacksonville Center
Mon 12:24:39 PM 33.7294 -81.7964 162° South 287 330 23,000  Level Jacksonville Center
Mon 12:25:39 PM 33.6519 -81.7672 163° South 287 330 23,000  Level Jacksonville Center
Mon 12:26:39 PM 33.5744 -81.7383 163° South 287 330 23,000  Level Jacksonville Center
Mon 12:27:39 PM 33.4992 -81.7094 162° South 287 330 23,000  Level Jacksonville Center
Mon 12:28:39 PM 33.4258 -81.6806 162° South 287 330 23,000  Level Jacksonville Center
Mon 12:29:39 PM 33.3503 -81.6492 161° South 287 330 23,000  Level Jacksonville Center
Mon 12:30:39 PM 33.2728 -81.6231 164° South 287 330 23,000  Level Jacksonville Center
Mon 12:31:39 PM 33.2078 -81.5992 163° South 280 322 23,000  Level Jacksonville Center
Mon 12:32:39 PM 33.1344 -81.5706 162° South 280 322 23,000  Level Jacksonville Center
Mon 12:33:39 PM 33.0569 -81.5444 164° South 285 328 23,000  Level Jacksonville Center
Mon 12:34:39 PM 32.9858 -81.5131 160° South 285 328 23,000  Level Jacksonville Center
Mon 12:35:39 PM 32.9122 -81.4869 163° South 280 322 23,000  Level Jacksonville Center
Mon 12:36:39 PM 32.8369 -81.4586 162° South 280 322 23,000  Level Jacksonville Center
Mon 12:37:39 PM 32.7636 -81.4300 162° South 280 322 23,000  Level Jacksonville Center
Mon 12:38:39 PM 32.6900 -81.4042 164° South 285 328 23,000  Level Jacksonville Center
Mon 12:39:39 PM 32.6147 -81.3758 162° South 272 313 23,000  Level Jacksonville Center
Mon 12:40:39 PM 32.5414 -81.3500 163° South 272 313 23,000  Level Jacksonville Center
Mon 12:41:39 PM 32.4783 -81.3264 162° South 272 313 23,000  Level Jacksonville Center
Mon 12:42:39 PM 32.4050 -81.2956 160° South 267 307 23,000  Level Jacksonville Center
Mon 12:43:39 PM 32.3336 -81.2722 165° South 267 307 23,000  Level Jacksonville Center
Mon 12:44:39 PM 32.2644 -81.2439 161° South 267 307 23,000  Level Jacksonville Center
Mon 12:45:39 PM 32.1953 -81.2306 171° South 261 300 23,000 -600 Level Jacksonville Center
Mon 12:46:39 PM 32.1308 -81.2439 190° South 246 283 21,800 -1,150 Descending Jacksonville Center
Mon 12:47:39 PM 32.0683 -81.2550 189° South 240 276 20,700 -1,200 Descending Jacksonville Center
Mon 12:48:39 PM 32.0058 -81.2608 185° South 235 270 19,400 -1,450 Descending Jacksonville Center
Mon 12:49:39 PM 31.9433 -81.2742 190° South 235 270 17,800 -1,500 Descending Jacksonville Center
Mon 12:50:39 PM 31.8767 -81.2828 186° South 226 260 16,400 -1,350 Descending Jacksonville Center
Mon 12:51:39 PM 31.8267 -81.2911 188° South 214 246 15,100 -1,350 Descending Jacksonville Center
Mon 12:52:39 PM 31.7683 -81.3017 189° South 202 232 13,700 -1,250 Descending Jacksonville Center
Mon 12:53:39 PM 31.7244 -81.3172 197° South 191 220 12,600 -950 Descending Jacksonville Center
Mon 12:54:39 PM 31.6706 -81.3353 196° South 185 213 11,800 -1,200 Descending Jacksonville Center
Mon 12:55:39 PM 31.6228 -81.3556 200° South 185 213 10,200 -1,450 Descending Jacksonville Center
Mon 12:56:39 PM 31.5708 -81.3831 204° Southwest 192 221 8,900 -1,250 Descending Jacksonville Center
Mon 12:57:39 PM 31.5208 -81.3864 183° South 198 228 7,700 -1,050 Descending Jacksonville Center
Mon 12:58:39 PM 31.4644 -81.3872 181° South 203 234 6,800 -1,050 Descending Jacksonville Center
Mon 12:59:39 PM 31.4039 -81.3883 181° South 203 234 5,600 -1,200 Descending Jacksonville Center
Mon 01:00:39 PM 31.3475 -81.3892 181° South 198 228 4,400 -1,000 Descending Jacksonville Center
Mon 01:01:39 PM 31.2933 -81.3925 183° South 198 228 3,600 -650 Descending Jacksonville Center
Mon 01:02:39 PM 31.2536 -81.3908 178° South 192 221 3,100 -500 Descending Jacksonville Center

Login

Don't have an account? Register now (free) for customized features, flight alerts, and more!